Flora, IL

07:09 PM CDT am 04. Juli 2015 (GMT -0500)
Flora Municipal | | Change Station
CLOSE
Current Station
Flughafen
Location: Flora,
Höhe: 472 ft
Wetterstationen in der Umgebung
aktive Warnung: Flood Warning aktiver Hinweis: Local Storm Report

Höhe 472 ft 38.67 °N, 88.45 °W | Updated 14 minutes ago

Heiter
Heiter
78 °F
gefühlte 78 °F
N
0
Wind Wechselnd Wind aus Nord

Heute
Max. -- | schwach -- °F
--% Regenrisiko
Gestern
Max. -- | schwach -- °F
Precip. -- inch
5:34 AM 8:21 PM
Drittes Viertel, 89% visible
Druck 29.99 inch
Sichtweite 10.0 Meilen
Wolken Heiter
Taupunkt 64 °F
Feuchtigkeit 61%
Regen 0.03 inch
Schneehöhe Nicht verfügbar..
UV 1 von 12
Pollen 3.00 von 12
Luftqualität Nicht verfügbar..
Flu Activity Nicht verfügbar..
METAR KFOA 042355Z AUTO 00000KT 10SM CLR 26/18 A2999 RMK AO2 T02550176 10271 20251

More Conditions Fewer Conditions

Druck 29.99 inch
Sichtweite 10.0 Meilen
Wolken Heiter
Taupunkt 64 °F
Feuchtigkeit 61%
Regen 0.03 inch
Schneehöhe Nicht verfügbar..
UV 1 von 12
Pollen 3.00 von 12
Luftqualität Nicht verfügbar..
Flu Activity Nicht verfügbar..
METAR KFOA 042355Z AUTO 00000KT 10SM CLR 26/18 A2999 RMK AO2 T02550176 10271 20251

More Conditions Fewer Conditions

10-Day Weather Forecast

×

Almanac

Astronomie

Jul. 04, 2015 Aufgang Untergang
Genaue Zeit
Bürgerliche Dämmerung
Nautische Dämmerung
Astronomische Dämmerung
Mond
Länge des sichtbaren Lichts
Tageslänge
Tomorrow will be .
, % of the Moon is Illuminated

Heutige Rekorde

State Highs State Lows

Community

WunderPhotos

Upload Photos

1,835,120 Fotos hochgeladen!

WunderBlogs® & News

Nearby

Luftqualität

  Luftqualität LQ Index Schadstoff
Not available.

Schneehöhe

Station Depth Höhe

Erdbebenaktivität

Stadt Distance Mag. Time & Date
Minimum magnitude displayed is 2.5.

küstennahe Wassertemperaturen

Ort Temperatur

Stations

Wetterstationen in der Umgebung

Stationsstandort Temp. Windchill Taupunkt Feuchtigkeit Wind Precip. Höhe Aktualisiert Art
                   
Flood Warning
Statement as of 09:33 AM CDT am 04. Juli 2015

The Flood Warning continues for
the Little Wabash River near Clay City.
* Until Monday afternoon.
* At 9 am Saturday the stage was 19.9 feet.
* Flood stage is 18 feet.
* Minor flooding is occurring and minor flooding is forecast.
* Forecast... the river will continue to fall to below flood stage by
Monday morning.
* Impact... at 18.5 feet... Wilcox bridge Lane floods just east of the
Little Wabash River near the gage location. Blueflower Lane
southeast of the gage begins to flood.


                  Fld observed forecast 6 am
location stg stg day time sun Mon Tue

Little Wabash River
Clay City 18 19.9 Sat 9 am 19.4 18.4 16.0


Lat... Lon 3878 8846 3871 8829 3860 8820 3860 8832
      3867 8838 3870 8846


07